Time;durP1;ratioP1;P1;durP2;ratioP2;P2;SDS_P1;SDS_P2;PMS_P1;PMS_P2;Temp;Humidity;BMP_temperature;BMP_pressure;BME280_temperature;BME280_humidity;BME280_pressure;Samples;Min_cycle;Max_cycle;Signal;HPM_P1;HPM_P2
2024/03/09 00:00:26;;;;;;;580.08;475.65;;;;;;;3.51;100.00;96997.28;4985162;28;20085;-60
2024/03/09 00:02:58;;;;;;;83.63;31.83;;;;;;;3.54;100.00;96997.34;4987778;28;20590;-60
2024/03/09 00:05:24;;;;;;;263.77;176.02;;;;;;;3.45;100.00;96998.09;4984791;28;20449;-60
2024/03/09 00:07:52;;;;;;;158.30;134.65;;;;;;;3.32;100.00;96996.25;4986411;28;20547;-60
2024/03/09 00:10:18;;;;;;;151.60;106.15;;;;;;;3.43;100.00;96992.09;4983757;28;20036;-60
2024/03/09 00:12:47;;;;;;;597.80;537.20;;;;;;;3.48;100.00;96984.41;4987895;28;20567;-60
2024/03/09 00:15:15;;;;;;;150.18;110.03;;;;;;;3.43;100.00;96994.66;4989197;28;20030;-61
2024/03/09 00:17:46;;;;;;;127.65;108.63;;;;;;;3.36;100.00;97000.59;4985302;28;20026;-61
2024/03/09 00:20:15;;;;;;;148.68;131.38;;;;;;;3.43;100.00;97001.50;4987035;28;20061;-60
2024/03/09 00:22:45;;;;;;;364.13;331.73;;;;;;;3.52;100.00;97009.28;4987177;28;20026;-61
2024/03/09 00:25:10;;;;;;;107.80;30.75;;;;;;;3.44;100.00;97016.94;4988949;28;20113;-62
2024/03/09 00:27:38;;;;;;;146.40;127.88;;;;;;;3.53;100.00;97021.31;4992568;28;20132;-59
2024/03/09 00:30:10;;;;;;;115.95;30.00;;;;;;;3.46;100.00;97015.22;4989540;28;20120;-62
2024/03/09 00:32:35;;;;;;;129.23;100.53;;;;;;;3.49;100.00;97011.84;4989547;28;20529;-61
2024/03/09 00:35:02;;;;;;;74.45;31.67;;;;;;;3.48;100.00;97012.69;4990952;28;20490;-62
2024/03/09 00:37:27;;;;;;;521.60;473.35;;;;;;;3.54;100.00;97007.63;4987784;28;20458;-60
2024/03/09 00:39:52;;;;;;;364.80;326.40;;;;;;;3.50;100.00;97009.28;4988929;28;20581;-60
2024/03/09 00:42:19;;;;;;;115.72;75.38;;;;;;;3.42;100.00;97010.06;4989014;28;20073;-61
2024/03/09 00:44:45;;;;;;;106.20;50.30;;;;;;;3.44;100.00;97006.66;4989650;28;20442;-60
2024/03/09 00:47:11;;;;;;;157.77;139.18;;;;;;;3.45;100.00;97010.09;4989734;28;20674;-59
2024/03/09 00:49:36;;;;;;;91.55;62.03;;;;;;;3.49;100.00;97007.56;4987536;28;22138;-59
2024/03/09 00:52:05;;;;;;;106.93;29.25;;;;;;;3.34;100.00;97003.13;4987764;28;20038;-60
2024/03/09 00:54:31;;;;;;;132.10;55.90;;;;;;;3.37;100.00;97008.31;4987728;28;20513;-63
2024/03/09 00:56:57;;;;;;;229.27;205.52;;;;;;;3.38;100.00;96996.34;4991294;28;20053;-61
2024/03/09 00:59:22;;;;;;;263.83;177.38;;;;;;;3.22;100.00;96985.03;4989898;28;20018;-60
2024/03/09 01:01:48;;;;;;;104.55;60.42;;;;;;;3.28;100.00;96974.81;4986061;28;20129;-60
2024/03/09 01:04:14;;;;;;;122.53;87.25;;;;;;;3.32;100.00;96981.72;4991211;28;20034;-59
2024/03/09 01:06:40;;;;;;;94.22;27.67;;;;;;;3.28;100.00;96979.97;4990519;28;20183;-59
2024/03/09 01:09:06;;;;;;;85.15;42.65;;;;;;;3.34;100.00;96972.28;4988542;28;20523;-62
2024/03/09 01:11:32;;;;;;;133.00;76.32;;;;;;;3.35;100.00;96962.88;4990139;28;20034;-59
2024/03/09 01:13:57;;;;;;;111.78;36.22;;;;;;;3.25;100.00;96956.78;4988556;28;20026;-62
2024/03/09 01:16:22;;;;;;;106.47;35.22;;;;;;;3.23;100.00;96971.34;4988641;28;20049;-63
2024/03/09 01:18:49;;;;;;;186.98;166.80;;;;;;;3.24;100.00;96966.19;4991155;28;20125;-62
2024/03/09 01:21:14;;;;;;;282.95;253.38;;;;;;;3.21;100.00;96958.50;4988374;28;20084;-59
2024/03/09 01:23:40;;;;;;;83.00;48.78;;;;;;;3.19;100.00;96959.31;4990328;28;20430;-61
2024/03/09 01:26:05;;;;;;;170.27;120.10;;;;;;;3.10;100.00;96955.81;4991568;28;20421;-59
2024/03/09 01:28:31;;;;;;;227.18;202.50;;;;;;;3.15;100.00;96955.00;4988802;28;20463;-61
2024/03/09 01:30:57;;;;;;;81.22;31.42;;;;;;;3.11;100.00;96951.53;4989259;28;20058;-61
2024/03/09 01:33:24;;;;;;;112.55;31.55;;;;;;;3.31;100.00;96945.72;4990409;28;20057;-60
2024/03/09 01:35:49;;;;;;;149.52;113.80;;;;;;;3.18;100.00;96948.16;4989245;28;20053;-62
2024/03/09 01:38:19;;;;;;;69.70;29.45;;;;;;;3.18;100.00;96944.72;4993395;28;20022;-63
2024/03/09 01:40:45;;;;;;;145.73;82.25;;;;;;;3.20;100.00;96938.75;4987214;28;20050;-60
2024/03/09 01:43:12;;;;;;;127.70;100.30;;;;;;;3.16;100.00;96939.59;4990997;28;20025;-60
2024/03/09 01:45:37;;;;;;;137.90;68.28;;;;;;;3.12;100.00;96935.28;4989762;28;20044;-61
2024/03/09 01:48:03;;;;;;;225.43;190.18;;;;;;;3.08;100.00;96930.97;4990160;28;20041;-59
2024/03/09 01:50:29;;;;;;;153.98;94.57;;;;;;;3.10;100.00;96918.97;4989436;28;20042;-59
2024/03/09 01:52:55;;;;;;;83.78;24.38;;;;;;;3.02;100.00;96923.19;4988223;28;20072;-62
2024/03/09 01:55:21;;;;;;;313.30;262.55;;;;;;;3.04;100.00;96919.78;4988802;28;20247;-59
2024/03/09 01:57:46;;;;;;;419.27;377.50;;;;;;;3.10;100.00;96931.81;4988169;28;20034;-59
2024/03/09 02:00:16;;;;;;;141.60;126.55;;;;;;;3.09;100.00;96932.69;4989690;28;20080;-58
2024/03/09 02:02:41;;;;;;;171.05;152.15;;;;;;;3.07;100.00;96931.78;4987425;28;20030;-61
2024/03/09 02:05:13;;;;;;;67.68;24.33;;;;;;;3.04;100.00;96936.91;4986913;28;20434;-60
2024/03/09 02:07:39;;;;;;;176.57;64.67;;;;;;;2.99;100.00;96940.31;4988378;28;20311;-59
2024/03/09 02:10:05;;;;;;;610.05;556.10;;;;;;;3.06;100.00;96935.22;4988187;28;20442;-60
2024/03/09 02:12:31;;;;;;;109.07;33.97;;;;;;;2.98;100.00;96927.44;4988185;28;20050;-59
2024/03/09 02:14:56;;;;;;;108.20;46.85;;;;;;;2.91;100.00;96929.09;4986487;28;20049;-61
2024/03/09 02:17:22;;;;;;;141.63;114.07;;;;;;;3.16;100.00;96924.19;4987935;28;20049;-59
2024/03/09 02:19:48;;;;;;;80.53;36.97;;;;;;;2.98;100.00;96917.16;4988576;28;20524;-63
2024/03/09 02:22:17;;;;;;;116.18;42.83;;;;;;;3.03;100.00;96920.63;4987670;28;20038;-60
2024/03/09 02:24:55;;;;;;;107.40;77.82;;;;;;;2.98;100.00;96925.72;4986942;28;21334;-59
2024/03/09 02:27:21;;;;;;;199.02;156.70;;;;;;;2.88;100.00;96916.19;4987079;28;20125;-59
2024/03/09 02:29:46;;;;;;;120.57;88.95;;;;;;;2.86;100.00;96918.75;4988043;28;20032;-59
2024/03/09 02:32:12;;;;;;;479.13;437.58;;;;;;;2.86;100.00;96908.47;4988366;28;20038;-61
2024/03/09 02:34:37;;;;;;;198.43;124.75;;;;;;;2.84;100.00;96910.19;4984391;28;20030;-59
2024/03/09 02:37:03;;;;;;;222.82;199.90;;;;;;;2.98;100.00;96897.44;4987934;28;20405;-59
2024/03/09 02:39:28;;;;;;;336.35;302.02;;;;;;;2.96;100.00;96890.59;4989189;28;20044;-62
2024/03/09 02:41:56;;;;;;;196.77;161.80;;;;;;;2.93;100.00;96888.84;4987101;28;20048;-61
2024/03/09 02:44:22;;;;;;;80.22;36.90;;;;;;;2.87;100.00;96886.25;4987166;28;20034;-62
2024/03/09 02:46:47;;;;;;;132.82;103.10;;;;;;;2.81;100.00;96883.59;4987851;28;20034;-61
2024/03/09 02:49:13;;;;;;;109.32;59.83;;;;;;;2.89;100.00;96881.97;4987509;28;20030;-61
2024/03/09 02:51:38;;;;;;;89.70;24.02;;;;;;;2.94;100.00;96876.88;4989635;28;20038;-60
2024/03/09 02:54:04;;;;;;;224.02;201.02;;;;;;;2.92;100.00;96879.44;4988323;28;20034;-61
2024/03/09 02:56:30;;;;;;;140.57;64.78;;;;;;;2.95;100.00;96886.31;4986354;28;20045;-61
2024/03/09 02:58:55;;;;;;;84.38;25.05;;;;;;;2.97;100.00;96888.03;4989128;28;20053;-59
2024/03/09 03:01:22;;;;;;;66.72;22.10;;;;;;;3.16;100.00;96893.34;4987665;28;20140;-60
2024/03/09 03:03:51;;;;;;;90.50;36.25;;;;;;;3.17;100.00;96895.06;4985797;28;20033;-61
2024/03/09 03:06:20;;;;;;;141.57;115.38;;;;;;;3.06;100.00;96891.53;4990689;28;20049;-61
2024/03/09 03:08:50;;;;;;;91.70;33.72;;;;;;;3.06;100.00;96888.97;4988893;28;20033;-61
2024/03/09 03:11:21;;;;;;;165.55;147.50;;;;;;;3.03;100.00;96894.06;4989012;28;20073;-61
2024/03/09 03:13:48;;;;;;;97.03;65.72;;;;;;;3.01;100.00;96891.50;4988160;28;20061;-59
2024/03/09 03:16:29;;;;;;;144.13;128.38;;;;;;;2.88;100.00;96884.50;4986179;28;20057;-61
2024/03/09 03:18:55;;;;;;;155.40;138.63;;;;;;;2.84;100.00;96881.06;4989810;28;20041;-60
2024/03/09 03:21:20;;;;;;;148.18;72.80;;;;;;;2.69;100.00;96885.22;4985423;28;20414;-61
2024/03/09 03:23:48;;;;;;;76.07;26.15;;;;;;;2.65;100.00;96887.72;4984642;28;20061;-61
2024/03/09 03:26:15;;;;;;;95.30;47.55;;;;;;;2.71;100.00;96890.38;4986583;28;20100;-58
2024/03/09 03:28:42;;;;;;;130.82;32.80;;;;;;;2.75;100.00;96888.69;4986995;28;20033;-60
2024/03/09 03:31:08;;;;;;;72.80;28.83;;;;;;;2.75;100.00;96889.56;4987178;28;20041;-62
2024/03/09 03:33:41;;;;;;;141.85;31.40;;;;;;;2.59;100.00;96888.50;4984719;28;20033;-60
2024/03/09 03:36:06;;;;;;;145.52;113.57;;;;;;;2.34;100.00;96893.41;4988843;28;20048;-60
2024/03/09 03:38:34;;;;;;;260.30;208.10;;;;;;;2.21;100.00;96898.38;4985348;28;20038;-60
2024/03/09 03:41:00;;;;;;;135.05;79.07;;;;;;;2.22;100.00;96894.09;4984640;28;20073;-61
2024/03/09 03:43:26;;;;;;;389.27;352.42;;;;;;;2.19;100.00;96891.50;4985214;28;20379;-62
2024/03/09 03:45:51;;;;;;;144.82;117.57;;;;;;;2.15;100.00;96895.72;4986171;28;20041;-60
2024/03/09 03:48:16;;;;;;;61.55;18.10;;;;;;;2.09;100.00;96898.22;4984582;28;20038;-62
2024/03/09 03:50:42;;;;;;;131.82;64.53;;;;;;;2.06;100.00;96898.19;4985138;28;20112;-62
2024/03/09 03:53:09;;;;;;;163.80;140.70;;;;;;;1.97;100.00;96880.13;4988318;28;20025;-60
2024/03/09 03:55:37;;;;;;;109.65;21.45;;;;;;;1.93;100.00;96897.16;4989665;28;20067;-59
2024/03/09 03:58:03;;;;;;;91.00;52.13;;;;;;;1.91;100.00;96902.28;4989301;28;20043;-60
2024/03/09 04:00:29;;;;;;;95.38;15.82;;;;;;;1.87;100.00;96910.75;4984661;28;20046;-58
2024/03/09 04:02:54;;;;;;;154.88;117.97;;;;;;;2.02;100.00;96904.09;4987258;28;20245;-60
2024/03/09 04:05:20;;;;;;;119.40;82.85;;;;;;;2.05;100.00;96901.59;4983867;28;20486;-59
2024/03/09 04:07:45;;;;;;;151.23;43.60;;;;;;;1.91;100.00;96899.72;4984458;28;20057;-60
2024/03/09 04:10:15;;;;;;;120.50;87.35;;;;;;;1.86;100.00;96896.22;4988255;28;20369;-59
2024/03/09 04:12:41;;;;;;;131.00;52.17;;;;;;;1.82;100.00;96899.59;4986185;28;20018;-59
2024/03/09 04:15:08;;;;;;;112.13;44.25;;;;;;;1.89;100.00;96898.81;4984404;28;20057;-58
2024/03/09 04:17:34;;;;;;;90.40;20.20;;;;;;;1.93;100.00;96900.56;4987160;28;20030;-60
2024/03/09 04:19:59;;;;;;;106.63;19.92;;;;;;;1.94;100.00;96909.16;4986029;28;20379;-60
2024/03/09 04:22:25;;;;;;;79.38;17.23;;;;;;;1.94;100.00;96911.72;4985158;28;20046;-58
2024/03/09 04:24:51;;;;;;;83.68;24.85;;;;;;;1.98;100.00;96905.78;4985638;28;20446;-59
2024/03/09 04:27:18;;;;;;;67.78;21.33;;;;;;;1.82;100.00;96908.13;4988762;28;20490;-59
2024/03/09 04:29:47;;;;;;;110.45;19.23;;;;;;;1.82;100.00;96907.28;4987191;28;20462;-61
2024/03/09 04:32:14;;;;;;;56.50;20.85;;;;;;;2.01;100.00;96905.78;4987429;28;20061;-59
2024/03/09 04:34:40;;;;;;;132.48;22.58;;;;;;;2.14;100.00;96906.84;4983504;28;20032;-59
2024/03/09 04:37:07;;;;;;;68.30;18.48;;;;;;;2.29;100.00;96911.28;4987071;28;20041;-60
2024/03/09 04:39:38;;;;;;;75.90;18.20;;;;;;;2.43;100.00;96914.03;4985700;28;20036;-58
2024/03/09 04:42:04;;;;;;;98.32;19.00;;;;;;;2.60;100.00;96913.38;4985498;28;20049;-61
2024/03/09 04:44:31;;;;;;;60.67;19.13;;;;;;;2.79;100.00;96910.97;4988044;28;20147;-58
2024/03/09 04:46:57;;;;;;;60.53;18.30;;;;;;;3.00;100.00;96920.59;4986147;28;20048;-57
2024/03/09 04:49:22;;;;;;;72.53;19.63;;;;;;;3.46;100.00;96914.97;4987126;28;20123;-58
2024/03/09 04:51:47;;;;;;;95.35;21.52;;;;;;;3.50;100.00;96909.00;4985835;28;20062;-60
2024/03/09 04:54:13;;;;;;;63.53;17.92;;;;;;;3.67;100.00;96908.28;4985878;28;20050;-59
2024/03/09 04:56:39;;;;;;;102.45;16.95;;;;;;;3.59;100.00;96904.78;4986675;28;20046;-60
2024/03/09 04:59:04;;;;;;;73.88;16.00;;;;;;;3.84;100.00;96899.81;4988697;28;20037;-61
2024/03/09 05:01:29;;;;;;;73.15;18.60;;;;;;;3.83;100.00;96898.09;4986747;28;20048;-59
2024/03/09 05:03:55;;;;;;;83.35;17.00;;;;;;;4.06;100.00;96893.06;4984073;28;20337;-58
2024/03/09 05:06:20;;;;;;;53.55;14.63;;;;;;;4.25;100.00;96895.72;4986512;28;20042;-59
2024/03/09 05:08:45;;;;;;;101.07;17.33;;;;;;;4.34;100.00;96882.88;4986087;28;20486;-61
2024/03/09 05:11:12;;;;;;;61.58;24.92;;;;;;;3.64;100.00;96877.41;4987478;28;20304;-60
2024/03/09 05:13:38;;;;;;;84.88;12.13;;;;;;;3.68;100.00;96874.00;4990209;28;20026;-58
2024/03/09 05:16:04;;;;;;;76.85;13.05;;;;;;;3.97;100.00;96881.00;4989761;28;20091;-58
2024/03/09 05:18:30;;;;;;;67.32;17.58;;;;;;;3.82;100.00;96870.66;4989249;28;20422;-60
2024/03/09 05:20:55;;;;;;;63.78;14.20;;;;;;;4.14;100.00;96877.66;4987353;28;20095;-61
2024/03/09 05:23:22;;;;;;;95.88;47.45;;;;;;;3.50;100.00;96883.31;4989897;28;20506;-59
2024/03/09 05:25:48;;;;;;;98.97;17.33;;;;;;;3.57;100.00;96881.66;4985711;28;20502;-58
2024/03/09 05:28:14;;;;;;;56.30;16.45;;;;;;;3.39;100.00;96872.09;4990226;28;20030;-60
2024/03/09 05:30:41;;;;;;;132.68;20.25;;;;;;;3.29;100.00;96876.31;4986319;28;20041;-59
2024/03/09 05:33:06;;;;;;;56.72;11.93;;;;;;;3.38;100.00;96875.53;4988614;28;20032;-61
2024/03/09 05:35:34;;;;;;;79.70;34.30;;;;;;;3.03;100.00;96871.81;4988732;28;20033;-59
2024/03/09 05:38:00;;;;;;;108.95;39.67;;;;;;;3.05;100.00;96867.56;4990473;28;20037;-59
2024/03/09 05:40:27;;;;;;;60.80;12.80;;;;;;;3.01;100.00;96870.09;4988327;28;20041;-59
2024/03/09 05:42:55;;;;;;;118.40;16.55;;;;;;;3.10;100.00;96876.16;4987094;28;20049;-61
2024/03/09 05:45:20;;;;;;;71.82;12.50;;;;;;;3.13;100.00;96872.75;4987160;28;20512;-59
2024/03/09 05:47:50;;;;;;;84.28;13.88;;;;;;;3.43;100.00;96872.97;4987506;28;20026;-58
2024/03/09 05:50:16;;;;;;;79.00;18.80;;;;;;;3.39;100.00;96866.97;4987418;28;20075;-59
2024/03/09 05:52:47;;;;;;;118.93;45.42;;;;;;;3.38;100.00;96863.53;4991214;28;20169;-59
2024/03/09 05:55:13;;;;;;;69.63;25.33;;;;;;;3.26;100.00;96866.00;4987205;28;20042;-61
2024/03/09 05:57:43;;;;;;;124.20;48.83;;;;;;;3.44;100.00;96865.28;4986098;28;20122;-57
2024/03/09 06:00:09;;;;;;;114.22;20.52;;;;;;;3.44;100.00;96859.25;4987270;28;20021;-59
2024/03/09 06:02:39;;;;;;;129.40;70.90;;;;;;;3.53;100.00;96861.06;4988870;28;20022;-61
2024/03/09 06:05:08;;;;;;;80.82;17.05;;;;;;;3.80;100.00;96867.19;4987024;28;20037;-59
2024/03/09 06:07:40;;;;;;;85.90;27.02;;;;;;;4.70;100.00;96857.22;4987872;28;20018;-60
2024/03/09 06:10:14;;;;;;;168.30;47.40;;;;;;;5.18;100.00;96870.16;4990005;28;20509;-59
2024/03/09 06:12:57;;;;;;;76.00;17.17;;;;;;;5.02;100.00;96874.47;4988831;28;20067;-61
2024/03/09 06:15:24;;;;;;;71.07;13.15;;;;;;;4.62;100.00;96879.53;4986675;28;20352;-59
2024/03/09 06:17:56;;;;;;;136.60;59.28;;;;;;;4.35;100.00;96871.75;4990133;28;20541;-59
2024/03/09 06:20:26;;;;;;;113.03;48.00;;;;;;;4.24;100.00;96879.44;4985814;28;20057;-62
2024/03/09 06:22:53;;;;;;;195.95;115.68;;;;;;;4.39;100.00;96872.63;4988717;28;20083;-62
2024/03/09 06:25:22;;;;;;;62.72;13.32;;;;;;;5.41;100.00;96868.44;4988279;28;20038;-60
2024/03/09 06:28:16;;;;;;;129.80;16.77;;;;;;;5.58;100.00;96873.59;4986296;28;20667;-60
2024/03/09 06:30:42;;;;;;;114.55;17.15;;;;;;;5.69;100.00;96878.72;4987455;28;20034;-57
2024/03/09 06:33:08;;;;;;;123.18;74.82;;;;;;;5.96;100.00;96880.38;4990724;28;20025;-61
2024/03/09 06:35:33;;;;;;;64.80;30.42;;;;;;;5.55;100.00;96882.19;4990086;28;20046;-61
2024/03/09 06:38:00;;;;;;;123.38;53.08;;;;;;;5.11;100.00;96885.63;4986715;28;20029;-59
2024/03/09 06:40:30;;;;;;;66.53;19.65;;;;;;;4.87;100.00;96885.63;4985763;28;20121;-59
2024/03/09 06:43:05;;;;;;;107.20;19.42;;;;;;;5.55;100.00;96886.47;4991439;28;20034;-58
2024/03/09 06:45:30;;;;;;;102.15;44.90;;;;;;;7.64;100.00;96885.41;4991390;28;20708;-60
2024/03/09 06:47:57;;;;;;;122.85;44.10;;;;;;;8.10;100.00;96891.88;4988331;28;20045;-59
2024/03/09 06:50:23;;;;;;;95.30;28.10;;;;;;;11.18;100.00;96904.00;4984844;28;20576;-60
2024/03/09 06:52:48;;;;;;;124.97;47.67;;;;;;;10.58;100.00;96900.97;4987359;28;20030;-61
2024/03/09 06:55:14;;;;;;;78.53;43.40;;;;;;;10.57;100.00;96904.47;4986315;28;20065;-60
2024/03/09 06:57:40;;;;;;;138.10;105.50;;;;;;;11.17;100.00;96909.28;4986196;28;20029;-60
2024/03/09 07:00:12;;;;;;;104.97;43.58;;;;;;;12.63;100.00;96915.94;4985019;28;20049;-61
2024/03/09 07:02:38;;;;;;;89.45;67.55;;;;;;;13.37;100.00;96914.59;4987167;28;20057;-58
2024/03/09 07:05:10;;;;;;;124.40;82.30;;;;;;;13.25;100.00;96912.41;4987447;28;20042;-62
2024/03/09 07:07:39;;;;;;;52.23;19.37;;;;;;;12.50;100.00;96899.81;4986339;28;20622;-60
2024/03/09 07:10:09;;;;;;;108.05;20.52;;;;;;;10.01;100.00;96854.44;4987609;28;20265;-60
2024/03/09 07:12:42;;;;;;;52.50;16.38;;;;;;;9.68;100.00;96849.00;4987422;28;20034;-61
2024/03/09 07:15:11;;;;;;;;;;;;;;;9.50;100.00;96853.63;4987617;28;20029;-62
2024/03/09 07:17:37;;;;;;;69.95;15.45;;;;;;;9.45;100.00;96858.06;4988082;28;19913;-58
2024/03/09 07:20:11;;;;;;;86.63;17.45;;;;;;;8.67;100.00;96856.66;4989006;28;20080;-58
2024/03/09 07:22:48;;;;;;;63.85;13.60;;;;;;;9.43;100.00;96848.59;4988544;28;20050;-58
2024/03/09 07:25:14;;;;;;;109.13;80.18;;;;;;;14.82;100.00;96825.94;4989602;28;20034;-59
2024/03/09 07:27:41;;;;;;;82.30;44.45;;;;;;;15.13;76.56;96838.72;4991598;28;20549;-59
2024/03/09 07:30:13;;;;;;;100.22;35.30;;;;;;;15.62;83.01;96838.47;4991917;28;20022;-59
2024/03/09 07:32:39;;;;;;;43.42;16.13;;;;;;;15.74;54.53;96840.56;4987610;28;20608;-58
2024/03/09 07:35:14;;;;;;;83.10;15.32;;;;;;;19.29;51.21;96826.72;4988014;28;20073;-59
2024/03/09 07:37:55;;;;;;;43.22;9.48;;;;;;;20.83;41.50;96829.03;4988534;28;20430;-58
2024/03/09 07:40:22;;;;;;;59.88;12.52;;;;;;;18.46;40.51;96830.38;4988342;28;20026;-59
2024/03/09 07:42:49;;;;;;;45.47;12.60;;;;;;;19.24;43.76;96826.13;4987123;28;20406;-60
2024/03/09 07:45:15;;;;;;;37.58;11.07;;;;;;;19.80;39.59;96825.53;4987761;28;20616;-63
2024/03/09 07:47:44;;;;;;;45.72;11.50;;;;;;;21.19;38.54;96820.53;4986400;28;20101;-62
2024/03/09 07:50:13;;;;;;;62.25;11.55;;;;;;;21.42;35.79;96826.09;4987864;28;20029;-59
2024/03/09 07:52:47;;;;;;;63.15;12.73;;;;;;;23.94;33.61;96819.97;4987747;28;20175;-60
2024/03/09 07:55:15;;;;;;;41.72;11.50;;;;;;;24.69;31.06;96814.19;4987577;28;20030;-62
2024/03/09 07:57:41;;;;;;;36.45;12.70;;;;;;;23.47;32.78;96804.88;4989924;28;20034;-59
2024/03/09 08:00:10;;;;;;;66.60;13.35;;;;;;;20.67;34.77;96804.44;4989068;28;20423;-61
2024/03/09 08:02:36;;;;;;;33.28;11.68;;;;;;;23.18;32.73;96799.03;4990365;28;20588;-61
2024/03/09 08:05:07;;;;;;;55.40;13.38;;;;;;;20.79;34.71;96805.44;4990520;28;20041;-62
2024/03/09 08:07:35;;;;;;;44.10;14.02;;;;;;;20.48;35.79;96804.75;4989520;28;20382;-63
2024/03/09 08:10:00;;;;;;;81.28;13.30;;;;;;;22.57;33.37;96806.06;4988959;28;20544;-60
2024/03/09 08:12:25;;;;;;;58.13;14.50;;;;;;;24.86;31.46;96806.72;4970580;28;20042;-64
2024/03/09 08:14:51;;;;;;;52.35;13.90;;;;;;;26.82;28.59;96806.28;4968705;28;20019;-60
2024/03/09 08:17:16;;;;;;;35.70;11.82;;;;;;;26.42;28.65;96807.16;4987512;28;20066;-62
2024/03/09 08:19:41;;;;;;;51.05;11.98;;;;;;;26.08;29.02;96814.41;4989772;28;20112;-62
2024/03/09 08:22:08;;;;;;;36.85;10.35;;;;;;;25.03;28.66;96800.00;4988721;28;20033;-61
2024/03/09 08:24:35;;;;;;;47.10;27.35;;;;;;;23.77;29.48;96807.97;4988986;28;20499;-64
2024/03/09 08:27:02;;;;;;;69.75;14.80;;;;;;;22.53;30.92;96796.63;4987117;28;20633;-62
2024/03/09 08:29:29;;;;;;;44.72;13.48;;;;;;;26.04;27.71;96781.00;4989088;28;20105;-64
2024/03/09 08:31:55;;;;;;;45.20;11.63;;;;;;;26.12;27.62;96777.66;4987679;28;20184;-61
2024/03/09 08:34:20;;;;;;;60.60;13.45;;;;;;;26.29;27.28;96783.38;4989025;28;20037;-61
2024/03/09 08:36:46;;;;;;;37.58;11.65;;;;;;;25.43;29.93;96782.56;4988240;28;20038;-62
2024/03/09 08:39:12;;;;;;;39.95;12.57;;;;;;;25.74;27.99;96791.50;4989388;28;20528;-61
2024/03/09 08:41:37;;;;;;;45.15;13.13;;;;;;;23.25;29.03;96785.25;4987971;28;20045;-62
2024/03/09 08:44:03;;;;;;;55.85;13.90;;;;;;;22.29;31.21;96774.41;4987568;28;20118;-60
2024/03/09 08:46:28;;;;;;;67.05;15.18;;;;;;;22.49;31.33;96780.09;4991110;28;20533;-62
2024/03/09 08:48:53;;;;;;;59.42;13.93;;;;;;;23.16;30.20;96775.31;4991021;28;20033;-60
2024/03/09 08:51:20;;;;;;;40.40;12.27;;;;;;;23.09;31.17;96763.47;4991969;28;20030;-60
2024/03/09 08:53:46;;;;;;;58.83;13.45;;;;;;;23.26;30.43;96754.25;4993073;28;20136;-62
2024/03/09 08:56:11;;;;;;;61.17;22.98;;;;;;;24.39;28.54;96758.03;4991780;28;20544;-63
2024/03/09 08:58:37;;;;;;;59.80;32.13;;;;;;;24.43;28.23;96756.84;4990911;28;20029;-61
2024/03/09 09:01:04;;;;;;;92.63;37.72;;;;;;;23.82;29.04;96757.19;4990938;28;20265;-61
2024/03/09 09:03:29;;;;;;;49.33;18.17;;;;;;;20.37;32.84;96757.88;4992248;28;20423;-61
2024/03/09 09:05:55;;;;;;;95.85;51.92;;;;;;;16.13;38.47;96764.63;4992278;28;20041;-59
2024/03/09 09:08:26;;;;;;;83.97;30.40;;;;;;;17.47;39.50;96758.28;4987739;28;20073;-61
2024/03/09 09:10:53;;;;;;;90.50;32.77;;;;;;;17.18;38.17;96765.84;4990661;28;20534;-61
2024/03/09 09:13:21;;;;;;;100.40;74.75;;;;;;;21.02;34.57;96757.34;4992793;28;20287;-62
2024/03/09 09:15:47;;;;;;;77.00;19.58;;;;;;;21.30;34.01;96766.13;4989303;28;20263;-61
2024/03/09 09:18:16;;;;;;;64.18;37.55;;;;;;;21.19;34.58;96751.81;4990756;28;20084;-61
2024/03/09 09:20:42;;;;;;;109.55;72.65;;;;;;;21.07;33.15;96749.97;4990310;28;20065;-60
2024/03/09 09:23:11;;;;;;;61.05;20.05;;;;;;;22.15;32.10;96743.59;4991225;28;20033;-62
2024/03/09 09:25:40;;;;;;;81.28;64.85;;;;;;;22.10;31.43;96748.38;4992105;28;20502;-61
2024/03/09 09:28:05;;;;;;;83.65;12.35;;;;;;;22.83;31.64;96742.38;4989660;28;20025;-61
2024/03/09 09:30:32;;;;;;;44.78;9.82;;;;;;;25.37;30.98;96741.34;4989442;28;20945;-59
2024/03/09 09:32:58;;;;;;;73.82;11.80;;;;;;;24.33;29.71;96736.44;4992461;28;20100;-61
2024/03/09 09:35:23;;;;;;;63.58;11.45;;;;;;;26.38;27.08;96746.13;4990367;28;20059;-62
2024/03/09 09:37:48;;;;;;;52.33;15.20;;;;;;;23.50;29.92;96737.47;4990420;28;20053;-63
2024/03/09 09:40:14;;;;;;;42.92;10.40;;;;;;;23.84;31.30;96744.63;4990361;28;20026;-62
2024/03/09 09:42:42;;;;;;;113.35;61.88;;;;;;;22.76;30.42;96742.00;4989607;28;20036;-61
2024/03/09 09:45:17;;;;;;;42.35;9.98;;;;;;;22.21;31.92;96737.88;4987286;28;20026;-61
2024/03/09 09:47:46;;;;;;;49.28;10.82;;;;;;;24.02;29.76;96734.38;4991469;28;20405;-60
2024/03/09 09:50:17;;;;;;;83.80;12.70;;;;;;;23.99;29.63;96732.81;4992540;28;20727;-61
2024/03/09 09:52:47;;;;;;;40.95;10.05;;;;;;;24.31;29.26;96736.59;4992136;28;20026;-60
2024/03/09 09:55:15;;;;;;;61.17;11.02;;;;;;;22.39;30.36;96724.28;4991848;28;20105;-62
2024/03/09 09:57:43;;;;;;;43.53;10.38;;;;;;;22.00;31.15;96715.59;4989543;28;20547;-61
2024/03/09 10:00:12;;;;;;;76.50;13.15;;;;;;;20.60;33.79;96729.16;4987764;28;20402;-61
2024/03/09 10:02:38;;;;;;;45.47;10.25;;;;;;;23.33;30.93;96714.84;4969723;28;20762;-58
2024/03/09 10:05:11;;;;;;;67.10;13.20;;;;;;;22.84;31.49;96706.97;4998149;28;20036;-62
2024/03/09 10:07:37;;;;;;;51.13;11.25;;;;;;;24.09;29.69;96705.53;4987784;28;20075;-59
2024/03/09 10:10:16;;;;;;;85.63;13.73;;;;;;;23.79;29.97;96706.00;4989880;28;20465;-61
2024/03/09 10:12:42;;;;;;;67.20;11.60;;;;;;;23.93;29.46;96707.59;4987685;28;20769;-60
2024/03/09 10:15:13;;;;;;;58.13;27.23;;;;;;;21.22;31.38;96704.97;4988977;28;20032;-60
2024/03/09 10:17:38;;;;;;;44.30;10.52;;;;;;;20.80;32.95;96698.81;4987770;28;20026;-60
2024/03/09 10:20:06;;;;;;;121.18;16.23;;;;;;;20.64;33.17;96693.69;4987434;28;20083;-63
2024/03/09 10:22:34;;;;;;;54.85;14.07;;;;;;;20.57;34.09;96688.91;4988212;28;20057;-61
2024/03/09 10:24:59;;;;;;;68.18;15.02;;;;;;;19.80;33.94;96684.88;4987906;28;20033;-62
2024/03/09 10:27:28;;;;;;;61.38;11.90;;;;;;;20.13;34.89;96678.47;4987800;28;20109;-61
2024/03/09 10:30:15;;;;;;;81.15;12.48;;;;;;;22.22;32.19;96686.63;4988364;28;20509;-60
2024/03/09 10:32:43;;;;;;;46.72;11.32;;;;;;;21.58;32.54;96682.25;4985695;28;20085;-63
2024/03/09 10:35:09;;;;;;;56.20;11.77;;;;;;;19.97;34.12;96681.19;4987792;28;20486;-59
2024/03/09 10:37:39;;;;;;;66.97;11.43;;;;;;;19.41;34.94;96679.31;4988117;28;20457;-59
2024/03/09 10:40:16;;;;;;;231.35;162.88;;;;;;;19.22;35.43;96667.22;4989004;28;20042;-63
2024/03/09 10:42:47;;;;;;;69.13;11.73;;;;;;;20.38;34.28;96671.63;4989258;28;20169;-60
2024/03/09 10:45:14;;;;;;;85.55;53.25;;;;;;;20.44;34.19;96671.22;4986088;28;20144;-60
2024/03/09 10:47:50;;;;;;;62.40;26.73;;;;;;;19.67;35.22;96669.78;4987428;28;20092;-60
2024/03/09 10:50:23;;;;;;;52.42;10.45;;;;;;;19.47;36.43;96666.59;4989254;28;20281;-60
2024/03/09 10:52:58;;;;;;;54.22;11.55;;;;;;;19.63;35.83;96671.78;4987799;28;20390;-59
2024/03/09 10:55:34;;;;;;;57.70;21.40;;;;;;;18.36;37.34;96663.38;4986658;28;20560;-60
2024/03/09 10:58:04;;;;;;;100.85;46.13;;;;;;;18.83;36.95;96657.16;4988006;28;20080;-60
2024/03/09 11:00:31;;;;;;;83.22;12.68;;;;;;;19.17;36.91;96651.72;4988450;28;20038;-61
2024/03/09 11:03:00;;;;;;;113.15;29.85;;;;;;;18.49;37.60;96645.94;4987981;28;20034;-60
2024/03/09 11:05:27;;;;;;;52.20;10.60;;;;;;;19.30;37.08;96645.69;4986353;28;20038;-60
2024/03/09 11:07:54;;;;;;;86.60;14.57;;;;;;;19.69;36.14;96648.59;4988386;28;20034;-59
2024/03/09 11:10:20;;;;;;;47.17;10.98;;;;;;;20.67;34.96;96635.38;4987961;28;20030;-60
2024/03/09 11:12:47;;;;;;;64.55;10.82;;;;;;;18.39;37.34;96637.72;4990525;28;20033;-62